Aviation Digital Data Service (ADDS)

Output produced by METARs form (1452 UTC 25 January 2020)
found at http://www.aviationweather.gov/metar/data/
 
Forecast for: VIDP (INDIRA GANDHI/DE, IN)
Text: TAF VIDP 251400Z 2515/2524 34004KT 2200 HZ FEW040 SCT100
Forecast period: 1500 to 2000 UTC 25 January 2020
Forecast type: FROM: standard forecast or significant change
Winds: from the NNW (340 degrees) at 5 MPH (4 knots; 2.1 m/s)
Visibility: 1.37 miles (2.20 km)
Ceiling: at least 12,000 feet AGL
Clouds: few clouds at 4000 feet AGL
scattered clouds at 10000 feet AGL
Weather: HZ  (haze)
Text: BECMG 2520/2522 0800 MIFG
Forecast period: 2000 UTC 25 January 2020 to 0000 UTC 26 January 2020
Forecast type: BECOMING: Conditions expected to become as follows by 2200 UTC 25 January 2020
Winds: from the NNW (340 degrees) at 5 MPH (4 knots; 2.1 m/s)
Visibility: 0.50 miles (0.80 km)
Ceiling: at least 12,000 feet AGL
Clouds: few clouds at 4000 feet AGL
scattered clouds at 10000 feet AGL
Weather: MIFG  (shallow fog)